sensor_id;sensor_type;location;lat;lon;timestamp;P1;durP1;ratioP1;P2;durP2;ratioP2
30647;SDS011;17683;53.360;9.736;2023-02-28T00:00:34;6.68;;;2.60;;
30647;SDS011;17683;53.360;9.736;2023-02-28T00:03:01;5.40;;;2.85;;
30647;SDS011;17683;53.360;9.736;2023-02-28T00:05:27;5.45;;;3.03;;
30647;SDS011;17683;53.360;9.736;2023-02-28T00:07:53;5.03;;;3.33;;
30647;SDS011;17683;53.360;9.736;2023-02-28T00:10:24;6.95;;;3.78;;
30647;SDS011;17683;53.360;9.736;2023-02-28T00:12:52;6.65;;;3.47;;
30647;SDS011;17683;53.360;9.736;2023-02-28T00:15:19;5.68;;;3.70;;
30647;SDS011;17683;53.360;9.736;2023-02-28T00:17:47;6.53;;;3.30;;
30647;SDS011;17683;53.360;9.736;2023-02-28T00:20:13;7.95;;;3.10;;
30647;SDS011;17683;53.360;9.736;2023-02-28T00:22:40;5.20;;;3.42;;
30647;SDS011;17683;53.360;9.736;2023-02-28T00:27:40;5.82;;;3.28;;
30647;SDS011;17683;53.360;9.736;2023-02-28T00:30:08;6.47;;;3.00;;
30647;SDS011;17683;53.360;9.736;2023-02-28T00:32:36;3.90;;;2.63;;
30647;SDS011;17683;53.360;9.736;2023-02-28T00:35:02;7.10;;;3.25;;
30647;SDS011;17683;53.360;9.736;2023-02-28T00:37:28;6.78;;;3.05;;
30647;SDS011;17683;53.360;9.736;2023-02-28T00:39:54;5.10;;;2.97;;
30647;SDS011;17683;53.360;9.736;2023-02-28T00:42:20;4.57;;;2.85;;
30647;SDS011;17683;53.360;9.736;2023-02-28T00:44:45;8.00;;;3.20;;
30647;SDS011;17683;53.360;9.736;2023-02-28T00:47:11;5.43;;;2.80;;
30647;SDS011;17683;53.360;9.736;2023-02-28T00:49:37;4.65;;;2.72;;
30647;SDS011;17683;53.360;9.736;2023-02-28T00:52:03;5.35;;;3.30;;
30647;SDS011;17683;53.360;9.736;2023-02-28T00:54:29;4.22;;;2.80;;
30647;SDS011;17683;53.360;9.736;2023-02-28T00:56:54;6.78;;;2.83;;
30647;SDS011;17683;53.360;9.736;2023-02-28T00:59:20;4.97;;;3.17;;
30647;SDS011;17683;53.360;9.736;2023-02-28T01:01:46;6.70;;;3.15;;
30647;SDS011;17683;53.360;9.736;2023-02-28T01:04:12;7.10;;;3.42;;
30647;SDS011;17683;53.360;9.736;2023-02-28T01:06:39;4.75;;;2.92;;
30647;SDS011;17683;53.360;9.736;2023-02-28T01:09:05;8.65;;;3.70;;
30647;SDS011;17683;53.360;9.736;2023-02-28T01:11:32;6.28;;;2.72;;
30647;SDS011;17683;53.360;9.736;2023-02-28T01:13:58;8.10;;;3.47;;
30647;SDS011;17683;53.360;9.736;2023-02-28T01:16:24;3.85;;;2.33;;
30647;SDS011;17683;53.360;9.736;2023-02-28T01:18:50;4.85;;;3.03;;
30647;SDS011;17683;53.360;9.736;2023-02-28T01:21:17;4.28;;;2.95;;
30647;SDS011;17683;53.360;9.736;2023-02-28T01:23:44;7.50;;;2.90;;
30647;SDS011;17683;53.360;9.736;2023-02-28T01:26:15;7.10;;;3.38;;
30647;SDS011;17683;53.360;9.736;2023-02-28T01:28:42;5.63;;;3.88;;
30647;SDS011;17683;53.360;9.736;2023-02-28T01:31:09;5.55;;;3.53;;
30647;SDS011;17683;53.360;9.736;2023-02-28T01:33:35;6.93;;;3.17;;
30647;SDS011;17683;53.360;9.736;2023-02-28T01:36:02;7.82;;;4.40;;
30647;SDS011;17683;53.360;9.736;2023-02-28T01:38:33;5.72;;;2.97;;
30647;SDS011;17683;53.360;9.736;2023-02-28T01:40:59;4.85;;;2.75;;
30647;SDS011;17683;53.360;9.736;2023-02-28T01:45:52;8.38;;;3.70;;
30647;SDS011;17683;53.360;9.736;2023-02-28T01:48:19;5.50;;;3.17;;
30647;SDS011;17683;53.360;9.736;2023-02-28T01:50:48;4.22;;;3.20;;
30647;SDS011;17683;53.360;9.736;2023-02-28T01:53:16;6.35;;;3.25;;
30647;SDS011;17683;53.360;9.736;2023-02-28T01:55:47;7.65;;;3.10;;
30647;SDS011;17683;53.360;9.736;2023-02-28T01:58:15;4.72;;;3.10;;
30647;SDS011;17683;53.360;9.736;2023-02-28T02:00:41;6.85;;;3.03;;
30647;SDS011;17683;53.360;9.736;2023-02-28T02:03:08;6.47;;;3.40;;
30647;SDS011;17683;53.360;9.736;2023-02-28T02:05:38;6.78;;;3.65;;
30647;SDS011;17683;53.360;9.736;2023-02-28T02:08:06;9.18;;;3.58;;
30647;SDS011;17683;53.360;9.736;2023-02-28T02:10:42;6.15;;;2.53;;
30647;SDS011;17683;53.360;9.736;2023-02-28T02:13:14;4.25;;;2.83;;
30647;SDS011;17683;53.360;9.736;2023-02-28T02:35:00;6.60;;;3.17;;
30647;SDS011;17683;53.360;9.736;2023-02-28T02:37:50;3.60;;;2.80;;
30647;SDS011;17683;53.360;9.736;2023-02-28T02:40:56;6.38;;;2.90;;
30647;SDS011;17683;53.360;9.736;2023-02-28T02:43:24;4.75;;;2.65;;
30647;SDS011;17683;53.360;9.736;2023-02-28T02:45:56;8.18;;;2.95;;
30647;SDS011;17683;53.360;9.736;2023-02-28T02:48:30;3.97;;;2.85;;
30647;SDS011;17683;53.360;9.736;2023-02-28T02:50:59;11.07;;;3.08;;
30647;SDS011;17683;53.360;9.736;2023-02-28T02:53:32;7.72;;;3.63;;
30647;SDS011;17683;53.360;9.736;2023-02-28T02:56:02;6.17;;;2.70;;
30647;SDS011;17683;53.360;9.736;2023-02-28T02:58:31;6.50;;;3.17;;
30647;SDS011;17683;53.360;9.736;2023-02-28T03:01:01;10.15;;;3.40;;
30647;SDS011;17683;53.360;9.736;2023-02-28T03:03:29;5.80;;;3.25;;
30647;SDS011;17683;53.360;9.736;2023-02-28T03:05:58;11.10;;;4.03;;
30647;SDS011;17683;53.360;9.736;2023-02-28T03:08:25;7.68;;;3.97;;
30647;SDS011;17683;53.360;9.736;2023-02-28T03:10:56;7.68;;;4.07;;
30647;SDS011;17683;53.360;9.736;2023-02-28T03:13:30;6.53;;;3.58;;
30647;SDS011;17683;53.360;9.736;2023-02-28T03:24:48;5.30;;;2.63;;
30647;SDS011;17683;53.360;9.736;2023-02-28T03:27:29;5.70;;;3.60;;
30647;SDS011;17683;53.360;9.736;2023-02-28T03:30:04;7.43;;;4.30;;
30647;SDS011;17683;53.360;9.736;2023-02-28T03:32:36;7.47;;;3.95;;
30647;SDS011;17683;53.360;9.736;2023-02-28T03:35:09;12.63;;;4.63;;
30647;SDS011;17683;53.360;9.736;2023-02-28T03:37:52;6.55;;;3.97;;
30647;SDS011;17683;53.360;9.736;2023-02-28T03:40:23;7.38;;;4.53;;
30647;SDS011;17683;53.360;9.736;2023-02-28T03:42:53;6.18;;;3.55;;
30647;SDS011;17683;53.360;9.736;2023-02-28T03:45:31;4.95;;;3.65;;
30647;SDS011;17683;53.360;9.736;2023-02-28T03:48:01;9.95;;;3.90;;
30647;SDS011;17683;53.360;9.736;2023-02-28T03:50:43;8.05;;;4.55;;
30647;SDS011;17683;53.360;9.736;2023-02-28T03:53:19;6.55;;;3.30;;
30647;SDS011;17683;53.360;9.736;2023-02-28T04:01:25;4.93;;;2.78;;
30647;SDS011;17683;53.360;9.736;2023-02-28T04:03:58;6.80;;;3.15;;
30647;SDS011;17683;53.360;9.736;2023-02-28T04:06:24;6.55;;;2.95;;
30647;SDS011;17683;53.360;9.736;2023-02-28T04:08:50;5.43;;;2.95;;
30647;SDS011;17683;53.360;9.736;2023-02-28T04:14:07;5.35;;;2.75;;
30647;SDS011;17683;53.360;9.736;2023-02-28T04:16:34;5.72;;;3.45;;
30647;SDS011;17683;53.360;9.736;2023-02-28T04:19:03;7.45;;;3.50;;
30647;SDS011;17683;53.360;9.736;2023-02-28T04:21:40;5.70;;;3.33;;
30647;SDS011;17683;53.360;9.736;2023-02-28T04:24:08;5.03;;;2.67;;
30647;SDS011;17683;53.360;9.736;2023-02-28T04:26:39;6.15;;;3.25;;
30647;SDS011;17683;53.360;9.736;2023-02-28T04:29:08;5.93;;;3.03;;
30647;SDS011;17683;53.360;9.736;2023-02-28T04:31:34;4.55;;;3.10;;
30647;SDS011;17683;53.360;9.736;2023-02-28T04:34:00;7.32;;;2.95;;
30647;SDS011;17683;53.360;9.736;2023-02-28T04:36:26;6.57;;;2.35;;
30647;SDS011;17683;53.360;9.736;2023-02-28T04:38:52;4.10;;;2.72;;
30647;SDS011;17683;53.360;9.736;2023-02-28T04:41:18;6.18;;;2.55;;
30647;SDS011;17683;53.360;9.736;2023-02-28T04:43:44;8.48;;;2.90;;
30647;SDS011;17683;53.360;9.736;2023-02-28T04:46:10;5.28;;;2.58;;
30647;SDS011;17683;53.360;9.736;2023-02-28T04:48:37;5.80;;;2.53;;
30647;SDS011;17683;53.360;9.736;2023-02-28T04:51:05;6.20;;;2.58;;
30647;SDS011;17683;53.360;9.736;2023-02-28T04:53:39;8.27;;;3.20;;
30647;SDS011;17683;53.360;9.736;2023-02-28T04:56:06;5.88;;;3.08;;
30647;SDS011;17683;53.360;9.736;2023-02-28T04:58:34;6.22;;;2.55;;
30647;SDS011;17683;53.360;9.736;2023-02-28T05:01:22;6.70;;;2.78;;
30647;SDS011;17683;53.360;9.736;2023-02-28T05:03:57;7.20;;;3.25;;
30647;SDS011;17683;53.360;9.736;2023-02-28T05:06:25;11.90;;;3.00;;
30647;SDS011;17683;53.360;9.736;2023-02-28T05:08:52;5.90;;;2.50;;
30647;SDS011;17683;53.360;9.736;2023-02-28T05:11:20;5.93;;;2.42;;
30647;SDS011;17683;53.360;9.736;2023-02-28T05:13:51;10.05;;;2.70;;
30647;SDS011;17683;53.360;9.736;2023-02-28T05:16:19;5.97;;;2.80;;
30647;SDS011;17683;53.360;9.736;2023-02-28T05:18:45;3.95;;;2.38;;
30647;SDS011;17683;53.360;9.736;2023-02-28T05:24:00;5.90;;;2.75;;
30647;SDS011;17683;53.360;9.736;2023-02-28T05:26:27;6.43;;;3.22;;
30647;SDS011;17683;53.360;9.736;2023-02-28T05:28:53;6.30;;;2.70;;
30647;SDS011;17683;53.360;9.736;2023-02-28T05:31:19;4.43;;;2.75;;
30647;SDS011;17683;53.360;9.736;2023-02-28T05:33:46;5.05;;;2.42;;
30647;SDS011;17683;53.360;9.736;2023-02-28T05:36:12;5.63;;;3.08;;
30647;SDS011;17683;53.360;9.736;2023-02-28T05:38:37;6.25;;;2.90;;
30647;SDS011;17683;53.360;9.736;2023-02-28T05:41:09;5.15;;;2.63;;
30647;SDS011;17683;53.360;9.736;2023-02-28T05:43:36;5.95;;;2.97;;
30647;SDS011;17683;53.360;9.736;2023-02-28T05:46:03;6.70;;;2.53;;
30647;SDS011;17683;53.360;9.736;2023-02-28T05:48:34;5.63;;;2.90;;
30647;SDS011;17683;53.360;9.736;2023-02-28T05:51:00;6.38;;;2.65;;
30647;SDS011;17683;53.360;9.736;2023-02-28T05:53:27;4.07;;;2.95;;
30647;SDS011;17683;53.360;9.736;2023-02-28T05:55:53;6.70;;;3.42;;
30647;SDS011;17683;53.360;9.736;2023-02-28T05:58:19;5.90;;;3.10;;
30647;SDS011;17683;53.360;9.736;2023-02-28T06:00:45;4.43;;;2.38;;
30647;SDS011;17683;53.360;9.736;2023-02-28T06:03:11;4.85;;;3.05;;
30647;SDS011;17683;53.360;9.736;2023-02-28T06:05:36;5.25;;;2.38;;
30647;SDS011;17683;53.360;9.736;2023-02-28T06:08:03;5.75;;;2.50;;
30647;SDS011;17683;53.360;9.736;2023-02-28T06:10:32;9.05;;;2.33;;
30647;SDS011;17683;53.360;9.736;2023-02-28T06:13:01;4.57;;;2.42;;
30647;SDS011;17683;53.360;9.736;2023-02-28T06:15:27;5.88;;;2.17;;
30647;SDS011;17683;53.360;9.736;2023-02-28T06:17:54;4.95;;;2.70;;
30647;SDS011;17683;53.360;9.736;2023-02-28T06:20:21;6.05;;;2.60;;
30647;SDS011;17683;53.360;9.736;2023-02-28T06:22:48;6.28;;;3.10;;
30647;SDS011;17683;53.360;9.736;2023-02-28T06:25:15;5.43;;;2.58;;
30647;SDS011;17683;53.360;9.736;2023-02-28T06:27:42;4.03;;;2.13;;
30647;SDS011;17683;53.360;9.736;2023-02-28T06:30:08;6.28;;;2.47;;
30647;SDS011;17683;53.360;9.736;2023-02-28T06:32:35;7.55;;;2.17;;
30647;SDS011;17683;53.360;9.736;2023-02-28T06:35:01;6.40;;;2.45;;
30647;SDS011;17683;53.360;9.736;2023-02-28T06:37:27;4.30;;;2.25;;
30647;SDS011;17683;53.360;9.736;2023-02-28T06:39:53;3.78;;;1.90;;
30647;SDS011;17683;53.360;9.736;2023-02-28T06:42:21;6.05;;;2.45;;
30647;SDS011;17683;53.360;9.736;2023-02-28T06:44:50;4.10;;;2.22;;
30647;SDS011;17683;53.360;9.736;2023-02-28T06:47:16;6.43;;;2.63;;
30647;SDS011;17683;53.360;9.736;2023-02-28T06:49:41;6.28;;;2.83;;
30647;SDS011;17683;53.360;9.736;2023-02-28T06:52:07;6.93;;;2.42;;
30647;SDS011;17683;53.360;9.736;2023-02-28T06:54:36;4.82;;;2.38;;
30647;SDS011;17683;53.360;9.736;2023-02-28T06:57:02;4.28;;;2.22;;
30647;SDS011;17683;53.360;9.736;2023-02-28T06:59:28;8.95;;;2.75;;
30647;SDS011;17683;53.360;9.736;2023-02-28T07:01:55;4.13;;;2.67;;
30647;SDS011;17683;53.360;9.736;2023-02-28T07:04:21;4.22;;;2.63;;
30647;SDS011;17683;53.360;9.736;2023-02-28T07:06:47;4.57;;;2.63;;
30647;SDS011;17683;53.360;9.736;2023-02-28T07:09:12;3.60;;;2.80;;
30647;SDS011;17683;53.360;9.736;2023-02-28T07:11:39;6.68;;;3.28;;
30647;SDS011;17683;53.360;9.736;2023-02-28T07:14:05;4.50;;;2.60;;
30647;SDS011;17683;53.360;9.736;2023-02-28T07:16:31;6.45;;;2.83;;
30647;SDS011;17683;53.360;9.736;2023-02-28T07:18:58;5.00;;;3.20;;
30647;SDS011;17683;53.360;9.736;2023-02-28T07:21:23;4.57;;;2.88;;
30647;SDS011;17683;53.360;9.736;2023-02-28T07:23:49;4.88;;;2.85;;
30647;SDS011;17683;53.360;9.736;2023-02-28T07:26:15;7.22;;;3.35;;
30647;SDS011;17683;53.360;9.736;2023-02-28T07:28:42;6.15;;;3.00;;
30647;SDS011;17683;53.360;9.736;2023-02-28T07:31:09;5.65;;;2.65;;
30647;SDS011;17683;53.360;9.736;2023-02-28T07:33:35;7.15;;;3.00;;
30647;SDS011;17683;53.360;9.736;2023-02-28T07:36:03;6.93;;;3.35;;
30647;SDS011;17683;53.360;9.736;2023-02-28T07:38:34;9.07;;;3.47;;
30647;SDS011;17683;53.360;9.736;2023-02-28T07:41:00;7.47;;;3.90;;
30647;SDS011;17683;53.360;9.736;2023-02-28T07:43:29;10.43;;;4.30;;
30647;SDS011;17683;53.360;9.736;2023-02-28T07:45:55;6.78;;;4.63;;
30647;SDS011;17683;53.360;9.736;2023-02-28T07:48:25;7.40;;;3.83;;
30647;SDS011;17683;53.360;9.736;2023-02-28T07:50:58;8.25;;;4.10;;
30647;SDS011;17683;53.360;9.736;2023-02-28T07:53:24;9.10;;;3.88;;
30647;SDS011;17683;53.360;9.736;2023-02-28T07:55:53;9.57;;;3.97;;
30647;SDS011;17683;53.360;9.736;2023-02-28T07:58:20;10.07;;;4.38;;
30647;SDS011;17683;53.360;9.736;2023-02-28T08:00:46;7.70;;;3.70;;
30647;SDS011;17683;53.360;9.736;2023-02-28T08:03:12;8.43;;;3.92;;
30647;SDS011;17683;53.360;9.736;2023-02-28T08:05:39;6.43;;;3.60;;
30647;SDS011;17683;53.360;9.736;2023-02-28T08:08:05;6.07;;;3.30;;
30647;SDS011;17683;53.360;9.736;2023-02-28T08:10:31;6.45;;;3.50;;
30647;SDS011;17683;53.360;9.736;2023-02-28T08:12:57;4.88;;;3.10;;
30647;SDS011;17683;53.360;9.736;2023-02-28T08:15:23;8.18;;;3.60;;
30647;SDS011;17683;53.360;9.736;2023-02-28T08:17:49;8.98;;;3.78;;
30647;SDS011;17683;53.360;9.736;2023-02-28T08:20:14;6.45;;;3.10;;
30647;SDS011;17683;53.360;9.736;2023-02-28T08:22:40;6.70;;;3.60;;
30647;SDS011;17683;53.360;9.736;2023-02-28T08:25:06;5.68;;;3.20;;
30647;SDS011;17683;53.360;9.736;2023-02-28T08:27:33;7.15;;;3.25;;
30647;SDS011;17683;53.360;9.736;2023-02-28T08:29:59;6.32;;;2.88;;
30647;SDS011;17683;53.360;9.736;2023-02-28T08:32:25;5.80;;;3.08;;
30647;SDS011;17683;53.360;9.736;2023-02-28T08:34:50;6.30;;;3.25;;
30647;SDS011;17683;53.360;9.736;2023-02-28T08:37:16;6.82;;;4.10;;
30647;SDS011;17683;53.360;9.736;2023-02-28T08:39:42;7.43;;;3.85;;
30647;SDS011;17683;53.360;9.736;2023-02-28T08:42:07;5.82;;;3.15;;
30647;SDS011;17683;53.360;9.736;2023-02-28T08:44:33;5.13;;;3.25;;
30647;SDS011;17683;53.360;9.736;2023-02-28T08:46:59;5.13;;;3.20;;
30647;SDS011;17683;53.360;9.736;2023-02-28T08:49:24;7.72;;;3.30;;
30647;SDS011;17683;53.360;9.736;2023-02-28T08:51:50;5.20;;;3.50;;
30647;SDS011;17683;53.360;9.736;2023-02-28T08:54:16;5.13;;;3.33;;
30647;SDS011;17683;53.360;9.736;2023-02-28T08:56:44;5.10;;;2.70;;
30647;SDS011;17683;53.360;9.736;2023-02-28T08:59:11;4.53;;;2.25;;
30647;SDS011;17683;53.360;9.736;2023-02-28T09:01:37;4.35;;;2.33;;
30647;SDS011;17683;53.360;9.736;2023-02-28T09:04:03;3.67;;;2.10;;
30647;SDS011;17683;53.360;9.736;2023-02-28T09:06:29;3.45;;;1.83;;
30647;SDS011;17683;53.360;9.736;2023-02-28T09:08:57;5.13;;;1.83;;
30647;SDS011;17683;53.360;9.736;2023-02-28T09:11:24;5.63;;;2.25;;
30647;SDS011;17683;53.360;9.736;2023-02-28T09:13:50;3.25;;;1.85;;
30647;SDS011;17683;53.360;9.736;2023-02-28T09:16:16;6.07;;;2.42;;
30647;SDS011;17683;53.360;9.736;2023-02-28T09:18:42;3.85;;;1.98;;
30647;SDS011;17683;53.360;9.736;2023-02-28T09:21:10;3.42;;;1.60;;
30647;SDS011;17683;53.360;9.736;2023-02-28T09:23:39;2.47;;;1.50;;
30647;SDS011;17683;53.360;9.736;2023-02-28T09:26:19;3.10;;;2.00;;
30647;SDS011;17683;53.360;9.736;2023-02-28T09:28:49;3.65;;;0.93;;
30647;SDS011;17683;53.360;9.736;2023-02-28T09:31:20;2.20;;;0.95;;
30647;SDS011;17683;53.360;9.736;2023-02-28T09:33:53;1.75;;;1.30;;
30647;SDS011;17683;53.360;9.736;2023-02-28T09:36:20;1.45;;;0.90;;
30647;SDS011;17683;53.360;9.736;2023-02-28T09:38:47;1.20;;;0.82;;
30647;SDS011;17683;53.360;9.736;2023-02-28T09:41:19;2.08;;;0.90;;
30647;SDS011;17683;53.360;9.736;2023-02-28T09:43:49;1.85;;;0.88;;
30647;SDS011;17683;53.360;9.736;2023-02-28T09:46:29;2.15;;;0.82;;
30647;SDS011;17683;53.360;9.736;2023-02-28T09:49:02;3.30;;;0.80;;
30647;SDS011;17683;53.360;9.736;2023-02-28T09:54:19;2.15;;;0.93;;
30647;SDS011;17683;53.360;9.736;2023-02-28T10:07:02;1.75;;;0.80;;
30647;SDS011;17683;53.360;9.736;2023-02-28T10:09:42;2.92;;;0.98;;
30647;SDS011;17683;53.360;9.736;2023-02-28T10:12:09;1.35;;;0.70;;
30647;SDS011;17683;53.360;9.736;2023-02-28T10:14:37;2.35;;;0.90;;
30647;SDS011;17683;53.360;9.736;2023-02-28T10:17:14;1.15;;;0.90;;
30647;SDS011;17683;53.360;9.736;2023-02-28T10:25:41;2.60;;;0.95;;
30647;SDS011;17683;53.360;9.736;2023-02-28T10:28:17;2.15;;;0.98;;
30647;SDS011;17683;53.360;9.736;2023-02-28T10:30:47;2.38;;;1.00;;
30647;SDS011;17683;53.360;9.736;2023-02-28T10:33:17;3.58;;;1.50;;
30647;SDS011;17683;53.360;9.736;2023-02-28T10:35:59;2.28;;;1.67;;
30647;SDS011;17683;53.360;9.736;2023-02-28T10:38:32;3.13;;;1.27;;
30647;SDS011;17683;53.360;9.736;2023-02-28T10:41:12;1.92;;;1.50;;
30647;SDS011;17683;53.360;9.736;2023-02-28T10:43:51;4.28;;;1.45;;
30647;SDS011;17683;53.360;9.736;2023-02-28T10:46:18;2.70;;;1.30;;
30647;SDS011;17683;53.360;9.736;2023-02-28T10:51:46;2.90;;;1.33;;
30647;SDS011;17683;53.360;9.736;2023-02-28T10:54:26;2.25;;;1.60;;
30647;SDS011;17683;53.360;9.736;2023-02-28T10:57:11;2.60;;;1.45;;
30647;SDS011;17683;53.360;9.736;2023-02-28T10:59:45;2.92;;;1.70;;
30647;SDS011;17683;53.360;9.736;2023-02-28T11:02:31;3.42;;;1.70;;
30647;SDS011;17683;53.360;9.736;2023-02-28T11:04:59;2.95;;;1.63;;
30647;SDS011;17683;53.360;9.736;2023-02-28T11:07:25;3.38;;;1.58;;
30647;SDS011;17683;53.360;9.736;2023-02-28T11:09:53;2.67;;;1.35;;
30647;SDS011;17683;53.360;9.736;2023-02-28T11:12:42;2.90;;;1.42;;
30647;SDS011;17683;53.360;9.736;2023-02-28T11:15:24;4.72;;;1.60;;
30647;SDS011;17683;53.360;9.736;2023-02-28T11:17:59;3.83;;;1.20;;
30647;SDS011;17683;53.360;9.736;2023-02-28T11:20:37;2.10;;;1.13;;
30647;SDS011;17683;53.360;9.736;2023-02-28T11:23:04;1.90;;;1.38;;
30647;SDS011;17683;53.360;9.736;2023-02-28T11:25:32;4.35;;;1.70;;
30647;SDS011;17683;53.360;9.736;2023-02-28T11:28:24;2.38;;;1.30;;
30647;SDS011;17683;53.360;9.736;2023-02-28T11:31:01;4.00;;;1.40;;
30647;SDS011;17683;53.360;9.736;2023-02-28T11:36:18;3.00;;;1.40;;
30647;SDS011;17683;53.360;9.736;2023-02-28T11:38:47;2.80;;;1.42;;
30647;SDS011;17683;53.360;9.736;2023-02-28T11:47:08;3.05;;;1.13;;
30647;SDS011;17683;53.360;9.736;2023-02-28T11:52:40;2.63;;;1.30;;
30647;SDS011;17683;53.360;9.736;2023-02-28T12:00:42;1.30;;;1.10;;
30647;SDS011;17683;53.360;9.736;2023-02-28T12:03:43;3.05;;;1.40;;
30647;SDS011;17683;53.360;9.736;2023-02-28T12:06:13;1.90;;;0.98;;
30647;SDS011;17683;53.360;9.736;2023-02-28T12:28:14;3.03;;;1.42;;
30647;SDS011;17683;53.360;9.736;2023-02-28T12:30:54;2.72;;;1.10;;
30647;SDS011;17683;53.360;9.736;2023-02-28T12:33:26;2.22;;;1.10;;
30647;SDS011;17683;53.360;9.736;2023-02-28T12:35:59;2.20;;;1.20;;
30647;SDS011;17683;53.360;9.736;2023-02-28T12:38:41;2.28;;;1.42;;
30647;SDS011;17683;53.360;9.736;2023-02-28T12:41:14;3.80;;;1.48;;
30647;SDS011;17683;53.360;9.736;2023-02-28T12:43:48;2.50;;;1.40;;
30647;SDS011;17683;53.360;9.736;2023-02-28T12:46:29;2.70;;;1.20;;
30647;SDS011;17683;53.360;9.736;2023-02-28T12:49:02;3.83;;;1.00;;
30647;SDS011;17683;53.360;9.736;2023-02-28T12:51:33;3.35;;;1.42;;
30647;SDS011;17683;53.360;9.736;2023-02-28T12:56:40;2.72;;;1.38;;
30647;SDS011;17683;53.360;9.736;2023-02-28T13:10:16;3.25;;;1.55;;
30647;SDS011;17683;53.360;9.736;2023-02-28T13:12:50;2.65;;;1.30;;
30647;SDS011;17683;53.360;9.736;2023-02-28T13:15:19;3.10;;;1.10;;
30647;SDS011;17683;53.360;9.736;2023-02-28T13:17:51;2.25;;;1.15;;
30647;SDS011;17683;53.360;9.736;2023-02-28T13:20:19;1.90;;;1.23;;
30647;SDS011;17683;53.360;9.736;2023-02-28T13:22:53;3.63;;;1.50;;
30647;SDS011;17683;53.360;9.736;2023-02-28T13:27:52;1.88;;;1.40;;
30647;SDS011;17683;53.360;9.736;2023-02-28T13:44:09;2.05;;;1.30;;
30647;SDS011;17683;53.360;9.736;2023-02-28T13:51:51;2.13;;;1.00;;
30647;SDS011;17683;53.360;9.736;2023-02-28T14:00:02;3.72;;;1.48;;
30647;SDS011;17683;53.360;9.736;2023-02-28T14:05:21;4.03;;;1.20;;
30647;SDS011;17683;53.360;9.736;2023-02-28T14:08:14;2.53;;;1.23;;
30647;SDS011;17683;53.360;9.736;2023-02-28T14:10:48;5.05;;;1.23;;
30647;SDS011;17683;53.360;9.736;2023-02-28T14:16:02;1.27;;;1.17;;
30647;SDS011;17683;53.360;9.736;2023-02-28T14:21:21;3.70;;;1.45;;
30647;SDS011;17683;53.360;9.736;2023-02-28T14:32:59;2.17;;;1.20;;
30647;SDS011;17683;53.360;9.736;2023-02-28T14:41:22;1.33;;;1.10;;
30647;SDS011;17683;53.360;9.736;2023-02-28T14:44:13;4.50;;;1.63;;
30647;SDS011;17683;53.360;9.736;2023-02-28T14:46:44;7.18;;;2.13;;
30647;SDS011;17683;53.360;9.736;2023-02-28T14:49:21;2.72;;;1.73;;
30647;SDS011;17683;53.360;9.736;2023-02-28T14:52:15;3.42;;;1.60;;
30647;SDS011;17683;53.360;9.736;2023-02-28T14:54:45;2.80;;;1.40;;
30647;SDS011;17683;53.360;9.736;2023-02-28T14:57:23;2.03;;;1.48;;
30647;SDS011;17683;53.360;9.736;2023-02-28T15:00:10;4.85;;;2.00;;
30647;SDS011;17683;53.360;9.736;2023-02-28T15:02:41;5.03;;;1.73;;
30647;SDS011;17683;53.360;9.736;2023-02-28T15:10:13;5.55;;;1.23;;
30647;SDS011;17683;53.360;9.736;2023-02-28T15:12:51;3.70;;;1.27;;
30647;SDS011;17683;53.360;9.736;2023-02-28T15:15:34;2.17;;;1.17;;
30647;SDS011;17683;53.360;9.736;2023-02-28T15:21:05;1.05;;;0.73;;
30647;SDS011;17683;53.360;9.736;2023-02-28T15:23:34;5.60;;;1.23;;
30647;SDS011;17683;53.360;9.736;2023-02-28T15:26:01;1.65;;;0.88;;
30647;SDS011;17683;53.360;9.736;2023-02-28T15:28:28;1.88;;;1.05;;
30647;SDS011;17683;53.360;9.736;2023-02-28T15:30:56;1.77;;;1.05;;
30647;SDS011;17683;53.360;9.736;2023-02-28T15:33:24;1.95;;;1.17;;
30647;SDS011;17683;53.360;9.736;2023-02-28T15:35:51;2.85;;;1.15;;
30647;SDS011;17683;53.360;9.736;2023-02-28T15:38:29;3.55;;;0.90;;
30647;SDS011;17683;53.360;9.736;2023-02-28T15:41:00;2.65;;;1.48;;
30647;SDS011;17683;53.360;9.736;2023-02-28T15:43:27;1.58;;;1.10;;
30647;SDS011;17683;53.360;9.736;2023-02-28T15:50:57;2.22;;;1.02;;
30647;SDS011;17683;53.360;9.736;2023-02-28T15:53:53;1.70;;;1.23;;
30647;SDS011;17683;53.360;9.736;2023-02-28T15:56:32;1.42;;;0.90;;
30647;SDS011;17683;53.360;9.736;2023-02-28T15:59:04;2.30;;;1.38;;
30647;SDS011;17683;53.360;9.736;2023-02-28T16:04:31;4.22;;;1.20;;
30647;SDS011;17683;53.360;9.736;2023-02-28T16:09:23;2.67;;;1.33;;
30647;SDS011;17683;53.360;9.736;2023-02-28T16:11:49;3.05;;;1.38;;
30647;SDS011;17683;53.360;9.736;2023-02-28T16:14:22;2.85;;;0.98;;
30647;SDS011;17683;53.360;9.736;2023-02-28T16:16:50;3.10;;;0.95;;
30647;SDS011;17683;53.360;9.736;2023-02-28T16:19:18;3.20;;;1.23;;
30647;SDS011;17683;53.360;9.736;2023-02-28T16:21:45;3.63;;;1.10;;
30647;SDS011;17683;53.360;9.736;2023-02-28T16:24:11;1.48;;;0.95;;
30647;SDS011;17683;53.360;9.736;2023-02-28T16:26:36;4.00;;;1.25;;
30647;SDS011;17683;53.360;9.736;2023-02-28T16:29:05;4.30;;;1.40;;
30647;SDS011;17683;53.360;9.736;2023-02-28T16:31:33;1.08;;;0.80;;
30647;SDS011;17683;53.360;9.736;2023-02-28T16:34:02;1.08;;;0.90;;
30647;SDS011;17683;53.360;9.736;2023-02-28T16:36:28;1.98;;;1.08;;
30647;SDS011;17683;53.360;9.736;2023-02-28T16:38:55;2.90;;;1.20;;
30647;SDS011;17683;53.360;9.736;2023-02-28T16:41:22;1.52;;;0.93;;
30647;SDS011;17683;53.360;9.736;2023-02-28T16:43:52;2.05;;;1.00;;
30647;SDS011;17683;53.360;9.736;2023-02-28T16:46:23;4.38;;;1.20;;
30647;SDS011;17683;53.360;9.736;2023-02-28T16:48:52;2.17;;;0.82;;
30647;SDS011;17683;53.360;9.736;2023-02-28T16:51:18;3.85;;;1.00;;
30647;SDS011;17683;53.360;9.736;2023-02-28T16:53:44;3.55;;;0.82;;
30647;SDS011;17683;53.360;9.736;2023-02-28T16:56:14;4.43;;;1.33;;
30647;SDS011;17683;53.360;9.736;2023-02-28T16:58:45;3.60;;;0.90;;
30647;SDS011;17683;53.360;9.736;2023-02-28T17:01:12;2.03;;;1.27;;
30647;SDS011;17683;53.360;9.736;2023-02-28T17:03:38;2.47;;;1.30;;
30647;SDS011;17683;53.360;9.736;2023-02-28T17:06:05;5.90;;;1.35;;
30647;SDS011;17683;53.360;9.736;2023-02-28T17:08:38;2.50;;;1.03;;
30647;SDS011;17683;53.360;9.736;2023-02-28T17:11:04;7.20;;;1.13;;
30647;SDS011;17683;53.360;9.736;2023-02-28T17:13:30;5.57;;;1.52;;
30647;SDS011;17683;53.360;9.736;2023-02-28T17:15:55;1.80;;;0.82;;
30647;SDS011;17683;53.360;9.736;2023-02-28T17:18:21;1.85;;;1.20;;
30647;SDS011;17683;53.360;9.736;2023-02-28T17:20:47;2.10;;;0.90;;
30647;SDS011;17683;53.360;9.736;2023-02-28T17:23:13;2.83;;;1.38;;
30647;SDS011;17683;53.360;9.736;2023-02-28T17:25:39;2.00;;;0.95;;
30647;SDS011;17683;53.360;9.736;2023-02-28T17:28:05;3.08;;;1.00;;
30647;SDS011;17683;53.360;9.736;2023-02-28T17:30:31;6.25;;;0.98;;
30647;SDS011;17683;53.360;9.736;2023-02-28T17:32:59;2.35;;;1.20;;
30647;SDS011;17683;53.360;9.736;2023-02-28T17:35:25;4.07;;;1.17;;
30647;SDS011;17683;53.360;9.736;2023-02-28T17:37:51;3.08;;;0.98;;
30647;SDS011;17683;53.360;9.736;2023-02-28T17:40:19;4.90;;;1.23;;
30647;SDS011;17683;53.360;9.736;2023-02-28T17:42:46;2.50;;;1.17;;
30647;SDS011;17683;53.360;9.736;2023-02-28T17:45:12;3.13;;;1.50;;
30647;SDS011;17683;53.360;9.736;2023-02-28T17:47:39;2.50;;;1.10;;
30647;SDS011;17683;53.360;9.736;2023-02-28T17:50:09;2.38;;;0.90;;
30647;SDS011;17683;53.360;9.736;2023-02-28T17:52:41;1.67;;;0.90;;
30647;SDS011;17683;53.360;9.736;2023-02-28T17:55:08;2.10;;;1.60;;
30647;SDS011;17683;53.360;9.736;2023-02-28T17:57:34;5.88;;;1.25;;
30647;SDS011;17683;53.360;9.736;2023-02-28T18:00:00;3.42;;;1.50;;
30647;SDS011;17683;53.360;9.736;2023-02-28T18:02:30;1.83;;;1.40;;
30647;SDS011;17683;53.360;9.736;2023-02-28T18:04:56;4.93;;;1.13;;
30647;SDS011;17683;53.360;9.736;2023-02-28T18:07:22;3.00;;;1.67;;